Time;durP1;ratioP1;P1;durP2;ratioP2;P2;SDS_P1;SDS_P2;PMS_P1;PMS_P2;Temp;Humidity;BMP_temperature;BMP_pressure;BME280_temperature;BME280_humidity;BME280_pressure;Samples;Min_cycle;Max_cycle;Signal;HPM_P1;HPM_P2
2022/10/21 00:01:28;;;;;;;25.60;22.90;;;13.80;99.90;;;;;;6118188;23;20441;-78
2022/10/21 00:03:55;;;;;;;23.07;20.73;;;13.80;99.90;;;;;;6134448;23;20437;-78
2022/10/21 00:06:23;;;;;;;23.60;21.10;;;13.80;99.90;;;;;;6160855;23;20433;-76
2022/10/21 00:08:50;;;;;;;25.63;22.80;;;13.80;99.90;;;;;;6143461;23;20535;-79
2022/10/21 00:11:18;;;;;;;22.60;20.20;;;13.70;99.90;;;;;;6125295;23;20438;-80
2022/10/21 00:13:46;;;;;;;26.53;23.83;;;13.80;99.90;;;;;;6131116;23;20465;-78
2022/10/21 00:16:16;;;;;;;24.47;21.97;;;13.80;99.90;;;;;;6104189;23;20439;-77
2022/10/21 00:18:45;;;;;;;23.30;21.00;;;13.80;99.90;;;;;;6110538;23;20481;-78
2022/10/21 00:21:14;;;;;;;25.70;22.93;;;13.80;99.90;;;;;;6130412;23;20994;-78
2022/10/21 00:23:43;;;;;;;22.90;20.50;;;13.70;99.90;;;;;;6114904;23;20461;-78
2022/10/21 00:26:12;;;;;;;21.83;19.40;;;13.80;99.90;;;;;;6110797;23;20462;-78
2022/10/21 00:28:39;;;;;;;21.17;19.03;;;13.80;99.90;;;;;;6101302;23;20440;-78
2022/10/21 00:31:07;;;;;;;21.37;19.20;;;13.90;99.90;;;;;;6111329;23;20426;-78
2022/10/21 00:33:35;;;;;;;21.23;19.20;;;13.90;99.90;;;;;;6118834;23;20984;-78
2022/10/21 00:36:04;;;;;;;20.67;18.53;;;14.00;99.90;;;;;;6118207;23;20471;-78
2022/10/21 00:38:32;;;;;;;22.50;20.27;;;13.90;99.90;;;;;;6118069;23;20538;-78
2022/10/21 00:41:01;;;;;;;21.13;19.20;;;13.90;99.90;;;;;;6112411;23;20470;-78
2022/10/21 00:43:29;;;;;;;20.93;18.80;;;13.90;99.90;;;;;;6110582;23;20722;-78
2022/10/21 00:46:00;;;;;;;20.80;18.77;;;13.90;99.90;;;;;;6134800;23;20473;-78
2022/10/21 00:48:32;;;;;;;22.77;20.57;;;13.90;99.90;;;;;;6124543;23;20475;-78
2022/10/21 00:51:03;;;;;;;20.90;18.70;;;13.80;99.90;;;;;;6132003;23;20472;-78
2022/10/21 00:53:31;;;;;;;21.57;19.33;;;13.80;99.90;;;;;;6108918;23;20896;-78
2022/10/21 00:56:05;;;;;;;22.53;20.43;;;13.90;99.90;;;;;;6126331;23;20472;-78
2022/10/21 00:58:34;;;;;;;21.20;19.10;;;13.90;99.90;;;;;;6119577;23;20449;-78
2022/10/21 01:01:04;;;;;;;23.43;21.13;;;14.00;99.90;;;;;;6091812;23;20453;-78
2022/10/21 01:03:32;;;;;;;22.00;19.70;;;14.00;99.90;;;;;;6118346;23;20463;-77
2022/10/21 01:06:02;;;;;;;22.80;20.13;;;14.00;99.90;;;;;;6117183;23;20965;-78
2022/10/21 01:08:30;;;;;;;22.57;20.17;;;14.00;99.90;;;;;;6120886;23;20450;-78
2022/10/21 01:10:58;;;;;;;21.60;19.40;;;14.00;99.90;;;;;;6107856;23;20941;-77
2022/10/21 01:13:36;;;;;;;23.33;20.87;;;14.00;99.90;;;;;;6116889;23;20430;-78
2022/10/21 01:16:10;;;;;;;21.90;19.63;;;14.00;99.90;;;;;;6143596;23;20590;-78
2022/10/21 01:18:47;;;;;;;22.10;19.90;;;14.00;99.90;;;;;;6116089;23;20456;-78
2022/10/21 01:21:30;;;;;;;21.40;19.23;;;13.90;99.90;;;;;;6107679;23;20521;-77
2022/10/21 01:24:18;;;;;;;21.50;19.30;;;13.90;99.90;;;;;;6115167;23;20441;-78
2022/10/21 01:27:14;;;;;;;25.60;22.97;;;13.90;99.90;;;;;;6088142;23;20455;-77
2022/10/21 01:30:10;;;;;;;22.67;20.43;;;13.80;99.90;;;;;;6112369;23;20831;-78
2022/10/21 01:32:47;;;;;;;23.70;21.10;;;13.80;99.90;;;;;;6115779;23;20853;-78
2022/10/21 01:35:21;;;;;;;22.57;20.37;;;13.70;99.90;;;;;;6119687;23;20795;-77
2022/10/21 01:37:57;;;;;;;23.27;20.50;;;13.60;99.90;;;;;;6103984;23;20441;-78
2022/10/21 01:40:31;;;;;;;23.30;20.70;;;13.60;99.90;;;;;;6093019;23;20393;-78
2022/10/21 01:43:03;;;;;;;21.97;19.73;;;13.50;99.90;;;;;;6099971;23;20438;-77
2022/10/21 01:45:36;;;;;;;22.03;19.73;;;13.40;99.90;;;;;;6137057;23;20449;-78
2022/10/21 01:48:08;;;;;;;22.60;20.30;;;13.20;99.90;;;;;;6119663;23;20852;-78
2022/10/21 01:50:41;;;;;;;25.92;22.08;;;13.10;99.90;;;;;;6117732;23;20252;-78
2022/10/21 01:53:12;;;;;;;24.63;22.08;;;13.00;99.90;;;;;;6118974;23;20253;-78
2022/10/21 01:55:41;;;;;;;31.48;24.20;;;13.00;99.90;;;;;;6123442;23;20257;-77
2022/10/21 01:58:13;;;;;;;27.40;22.70;;;13.00;99.90;;;;;;6109427;23;20191;-77
2022/10/21 02:00:42;;;;;;;26.93;22.90;;;13.00;99.90;;;;;;6128775;23;20581;-78
2022/10/21 02:03:15;;;;;;;27.88;24.17;;;13.00;99.90;;;;;;6117498;23;20433;-78
2022/10/21 02:05:43;;;;;;;27.13;24.27;;;13.00;99.90;;;;;;6119740;23;20195;-78
2022/10/21 02:08:10;;;;;;;29.65;24.67;;;13.00;99.90;;;;;;6102963;23;20230;-78
2022/10/21 02:10:43;;;;;;;28.50;25.50;;;13.00;99.90;;;;;;6115718;23;20187;-78
2022/10/21 02:13:15;;;;;;;27.60;24.63;;;13.00;99.90;;;;;;6107904;23;20192;-77
2022/10/21 02:15:43;;;;;;;29.55;26.52;;;13.00;99.90;;;;;;6101231;23;20222;-77
2022/10/21 02:18:20;;;;;;;34.13;27.37;;;13.00;99.90;;;;;;6117340;23;20227;-78
2022/10/21 02:20:51;;;;;;;27.50;24.65;;;13.10;99.90;;;;;;6126152;23;21129;-78
2022/10/21 02:23:23;;;;;;;32.83;26.77;;;13.10;99.90;;;;;;6117487;23;20270;-78
2022/10/21 02:25:52;;;;;;;27.63;23.98;;;13.20;99.90;;;;;;6118231;23;20522;-78
2022/10/21 02:28:20;;;;;;;27.85;24.85;;;13.20;99.90;;;;;;6117323;23;20282;-78
2022/10/21 02:30:59;;;;;;;27.53;24.50;;;13.20;99.90;;;;;;6117831;23;20717;-77
2022/10/21 02:33:38;;;;;;;26.02;23.42;;;13.30;99.90;;;;;;6123565;23;20464;-78
2022/10/21 02:36:13;;;;;;;24.48;22.08;;;13.30;99.90;;;;;;6138356;23;20180;-79
2022/10/21 02:38:45;;;;;;;26.80;23.83;;;13.40;99.90;;;;;;6123199;23;20206;-78
2022/10/21 02:41:16;;;;;;;25.30;22.57;;;13.40;99.90;;;;;;6126141;23;20455;-77
2022/10/21 02:43:49;;;;;;;26.77;23.97;;;13.50;99.90;;;;;;6131530;23;20446;-77
2022/10/21 02:46:16;;;;;;;26.67;23.88;;;13.50;99.90;;;;;;6125215;23;20451;-78
2022/10/21 02:48:47;;;;;;;25.80;23.10;;;13.50;99.90;;;;;;6115996;23;20197;-77
2022/10/21 02:51:15;;;;;;;28.20;23.75;;;13.50;99.90;;;;;;6110963;23;20435;-78
2022/10/21 02:53:43;;;;;;;30.63;26.10;;;13.60;99.90;;;;;;6119400;23;20196;-78
2022/10/21 02:56:11;;;;;;;25.57;22.97;;;13.80;99.90;;;;;;6116425;23;21004;-78
2022/10/21 02:58:38;;;;;;;25.80;22.80;;;13.60;99.90;;;;;;6131375;23;20841;-78
2022/10/21 03:01:05;;;;;;;26.07;23.30;;;13.70;99.90;;;;;;6119767;23;20942;-77
2022/10/21 03:03:33;;;;;;;24.20;21.47;;;13.70;99.90;;;;;;6110176;23;20482;-77
2022/10/21 03:06:02;;;;;;;25.40;21.77;;;13.70;99.90;;;;;;6103964;23;20847;-78
2022/10/21 03:08:29;;;;;;;24.73;22.13;;;13.70;99.90;;;;;;6111940;23;20443;-78
2022/10/21 03:10:57;;;;;;;28.07;23.20;;;13.70;99.90;;;;;;6112107;23;20446;-78
2022/10/21 03:13:24;;;;;;;28.00;22.83;;;13.70;99.90;;;;;;6113664;23;20446;-77
2022/10/21 03:15:52;;;;;;;25.13;21.27;;;13.70;99.90;;;;;;6138211;23;20460;-77
2022/10/21 03:18:19;;;;;;;28.50;23.70;;;13.70;99.90;;;;;;6116281;23;20455;-77
2022/10/21 03:20:49;;;;;;;25.70;21.47;;;13.80;99.90;;;;;;6118322;23;20527;-77
2022/10/21 03:23:18;;;;;;;24.27;21.07;;;13.70;99.90;;;;;;6125397;23;20465;-77
2022/10/21 03:25:46;;;;;;;23.83;21.30;;;13.70;99.90;;;;;;6111001;23;20820;-78
2022/10/21 03:28:13;;;;;;;21.83;19.60;;;13.60;99.90;;;;;;6123843;23;20494;-77
2022/10/21 03:30:40;;;;;;;22.23;19.93;;;13.60;99.90;;;;;;6112649;23;20506;-77
2022/10/21 03:33:08;;;;;;;24.33;21.83;;;13.70;99.90;;;;;;6109870;23;20950;-78
2022/10/21 03:35:35;;;;;;;22.83;20.43;;;13.70;99.90;;;;;;6106213;23;20497;-78
2022/10/21 03:38:02;;;;;;;25.00;20.33;;;13.70;99.90;;;;;;6112560;23;20936;-78
2022/10/21 03:40:31;;;;;;;22.10;19.70;;;13.70;99.90;;;;;;6117499;23;20515;-78
2022/10/21 03:42:59;;;;;;;22.10;19.90;;;13.70;99.90;;;;;;6115118;23;20443;-77
2022/10/21 03:45:27;;;;;;;22.70;20.30;;;13.70;99.90;;;;;;6117998;23;20517;-78
2022/10/21 03:47:54;;;;;;;22.80;20.37;;;13.60;99.90;;;;;;6124696;23;20522;-77
2022/10/21 03:50:22;;;;;;;22.27;20.00;;;13.60;99.90;;;;;;6118835;23;20549;-78
2022/10/21 03:52:49;;;;;;;26.93;20.60;;;13.60;99.90;;;;;;6115944;23;20462;-75
2022/10/21 03:55:19;;;;;;;21.20;19.10;;;13.60;99.90;;;;;;6117910;23;20451;-78
2022/10/21 03:57:48;;;;;;;22.67;20.37;;;13.60;99.90;;;;;;6124051;23;20438;-78
2022/10/21 04:00:16;;;;;;;22.53;19.70;;;13.70;99.90;;;;;;6124017;23;21021;-78
2022/10/21 04:02:43;;;;;;;24.60;20.23;;;13.80;99.90;;;;;;6118657;23;20449;-78
2022/10/21 04:05:11;;;;;;;23.77;20.50;;;13.80;99.90;;;;;;6111619;23;20417;-77
2022/10/21 04:07:38;;;;;;;24.97;21.87;;;13.90;99.90;;;;;;6121466;23;20439;-78
2022/10/21 04:10:09;;;;;;;26.90;23.37;;;14.00;99.90;;;;;;6118760;23;20565;-78
2022/10/21 04:12:36;;;;;;;26.53;23.17;;;14.00;99.90;;;;;;6120448;23;20533;-78
2022/10/21 04:15:06;;;;;;;23.93;21.53;;;14.10;99.90;;;;;;6120192;23;20892;-78
2022/10/21 04:17:34;;;;;;;25.13;21.33;;;14.10;99.90;;;;;;6125821;23;20500;-77
2022/10/21 04:20:01;;;;;;;23.63;21.07;;;14.00;99.90;;;;;;6127101;23;20439;-77
2022/10/21 04:22:28;;;;;;;23.10;20.77;;;14.00;99.90;;;;;;6113286;23;20976;-78
2022/10/21 04:24:56;;;;;;;25.27;22.67;;;14.00;99.90;;;;;;6121025;23;20447;-78
2022/10/21 04:27:23;;;;;;;23.77;21.27;;;14.00;99.90;;;;;;6118449;23;20443;-78
2022/10/21 04:29:50;;;;;;;22.90;20.50;;;14.00;99.90;;;;;;6123771;23;20471;-77
2022/10/21 04:32:19;;;;;;;22.85;20.65;;;13.90;99.90;;;;;;6088345;23;20433;-77
2022/10/21 04:34:46;;;;;;;24.17;20.92;;;13.90;99.90;;;;;;6120735;23;20187;-77
2022/10/21 04:37:13;;;;;;;23.37;20.53;;;13.90;99.90;;;;;;6093385;23;20516;-77
2022/10/21 04:39:41;;;;;;;25.30;21.20;;;13.90;99.90;;;;;;6119278;23;20526;-77
2022/10/21 04:42:08;;;;;;;21.80;19.50;;;13.90;99.90;;;;;;6113262;23;20537;-78
2022/10/21 04:44:37;;;;;;;21.90;19.73;;;13.90;99.90;;;;;;6113011;23;20492;-78
2022/10/21 04:47:05;;;;;;;24.35;20.15;;;13.90;99.90;;;;;;6101395;23;20465;-78
2022/10/21 04:49:34;;;;;;;22.13;19.70;;;13.90;99.90;;;;;;6116450;23;20213;-77
2022/10/21 04:52:01;;;;;;;22.43;20.13;;;13.90;99.90;;;;;;6128656;23;20433;-78
2022/10/21 04:54:28;;;;;;;23.33;21.03;;;13.90;99.90;;;;;;6113897;23;20442;-78
2022/10/21 04:56:56;;;;;;;25.50;20.37;;;13.90;99.90;;;;;;6102056;23;20431;-77
2022/10/21 04:59:24;;;;;;;22.60;19.77;;;13.90;99.90;;;;;;6095821;23;20936;-78
2022/10/21 05:01:58;;;;;;;23.90;20.17;;;13.90;99.90;;;;;;6117989;23;20455;-76
2022/10/21 05:04:25;;;;;;;21.20;18.80;;;13.90;99.90;;;;;;6121633;23;20429;-81
2022/10/21 05:06:54;;;;;;;21.80;19.40;;;13.90;99.90;;;;;;6125401;23;20426;-81
2022/10/21 05:09:21;;;;;;;23.50;19.60;;;14.00;99.90;;;;;;6126406;23;20461;-76
2022/10/21 05:11:49;;;;;;;20.83;18.67;;;14.00;99.90;;;;;;6129962;23;20426;-77
2022/10/21 05:14:17;;;;;;;21.13;19.00;;;14.00;99.90;;;;;;6132383;23;20478;-77
2022/10/21 05:16:44;;;;;;;19.67;17.63;;;14.00;99.90;;;;;;6105845;23;20519;-72
2022/10/21 05:19:12;;;;;;;20.23;18.17;;;14.00;99.90;;;;;;6127849;23;20433;-72
2022/10/21 05:21:40;;;;;;;20.87;18.77;;;14.00;99.90;;;;;;6118753;23;20471;-72
2022/10/21 05:24:08;;;;;;;22.37;19.80;;;14.00;99.90;;;;;;6119997;23;20438;-71
2022/10/21 05:26:35;;;;;;;19.67;17.60;;;14.00;99.90;;;;;;6121346;23;20446;-73
2022/10/21 05:29:02;;;;;;;19.90;17.97;;;14.20;99.90;;;;;;6130168;23;20513;-73
2022/10/21 05:31:30;;;;;;;20.23;17.70;;;14.00;99.90;;;;;;6109713;23;20418;-72
2022/10/21 05:33:57;;;;;;;20.30;16.90;;;14.00;99.90;;;;;;6129355;23;20507;-73
2022/10/21 05:36:24;;;;;;;21.80;18.17;;;14.00;99.90;;;;;;6113791;23;20438;-72
2022/10/21 05:38:52;;;;;;;19.70;17.80;;;14.00;99.90;;;;;;6117652;23;20534;-73
2022/10/21 05:41:21;;;;;;;18.50;16.57;;;14.00;99.90;;;;;;6116204;23;20474;-72
2022/10/21 05:43:48;;;;;;;19.63;17.60;;;14.00;99.90;;;;;;6112620;23;20506;-72
2022/10/21 05:46:15;;;;;;;20.23;17.80;;;14.00;99.90;;;;;;6114187;23;20252;-72
2022/10/21 05:48:42;;;;;;;20.03;17.90;;;14.00;99.90;;;;;;6111088;23;20441;-72
2022/10/21 05:51:10;;;;;;;20.23;18.30;;;14.00;99.90;;;;;;6162851;23;20457;-72
2022/10/21 05:53:38;;;;;;;20.30;17.67;;;14.00;99.90;;;;;;6113581;23;20481;-72
2022/10/21 05:56:07;;;;;;;18.73;15.33;;;14.00;99.90;;;;;;6108341;23;20540;-72
2022/10/21 05:58:36;;;;;;;19.37;14.97;;;14.00;99.90;;;;;;6107961;23;20445;-72
2022/10/21 06:01:03;;;;;;;19.27;15.13;;;14.10;99.90;;;;;;6106989;23;21023;-72
2022/10/21 06:03:33;;;;;;;17.03;15.07;;;14.20;99.90;;;;;;6115864;23;20468;-73
2022/10/21 06:06:03;;;;;;;17.30;13.40;;;14.20;99.90;;;;;;6123936;23;20483;-73
2022/10/21 06:08:33;;;;;;;12.53;11.30;;;14.30;99.90;;;;;;6138866;23;20437;-73
2022/10/21 06:11:02;;;;;;;14.60;10.67;;;14.40;99.90;;;;;;6127468;23;20462;-72
2022/10/21 06:13:29;;;;;;;16.10;10.57;;;14.50;99.90;;;;;;6112765;23;20425;-73
2022/10/21 06:15:58;;;;;;;10.27;9.10;;;14.50;99.90;;;;;;6113013;23;20438;-72
2022/10/21 06:18:25;;;;;;;11.80;10.00;;;14.70;99.90;;;;;;6121850;23;20504;-73
2022/10/21 06:20:52;;;;;;;13.73;9.70;;;14.70;99.90;;;;;;6109988;23;20433;-73
2022/10/21 06:23:20;;;;;;;12.83;8.67;;;14.70;99.90;;;;;;6113873;23;20444;-73
2022/10/21 06:25:55;;;;;;;12.70;9.73;;;14.90;99.90;;;;;;6103400;23;20436;-72
2022/10/21 06:28:22;;;;;;;10.70;8.87;;;14.80;99.90;;;;;;6114986;23;20432;-73
2022/10/21 06:30:50;;;;;;;10.07;8.53;;;14.90;99.90;;;;;;6113867;23;20529;-73
2022/10/21 06:33:19;;;;;;;10.67;9.57;;;14.90;99.90;;;;;;6120597;23;20443;-73
2022/10/21 06:35:46;;;;;;;13.90;11.07;;;14.90;99.90;;;;;;6115471;23;20435;-73
2022/10/21 06:38:14;;;;;;;12.37;11.13;;;14.80;99.90;;;;;;6116124;23;20468;-73
2022/10/21 06:40:42;;;;;;;12.60;10.40;;;14.80;99.90;;;;;;6103651;23;20431;-73
2022/10/21 06:43:09;;;;;;;12.83;11.37;;;14.70;99.90;;;;;;6116309;23;20478;-72
2022/10/21 06:45:37;;;;;;;13.13;11.20;;;14.70;99.90;;;;;;6109787;23;20440;-73
2022/10/21 06:48:04;;;;;;;15.50;11.00;;;14.70;99.90;;;;;;6108738;23;20463;-73
2022/10/21 06:50:33;;;;;;;14.80;12.17;;;14.70;99.90;;;;;;6109495;23;20471;-72
2022/10/21 06:53:00;;;;;;;15.90;12.07;;;14.80;99.90;;;;;;6109872;23;20522;-72
2022/10/21 06:55:27;;;;;;;11.67;10.47;;;14.60;99.90;;;;;;6116953;23;20436;-72
2022/10/21 06:57:54;;;;;;;13.63;10.70;;;14.70;99.90;;;;;;6109094;23;20751;-72
2022/10/21 07:00:22;;;;;;;14.33;11.33;;;14.60;99.90;;;;;;6112722;23;20444;-73
2022/10/21 07:02:49;;;;;;;14.70;11.27;;;14.60;99.90;;;;;;6107239;23;20459;-73
2022/10/21 07:05:16;;;;;;;13.83;11.70;;;14.80;99.90;;;;;;6117849;23;20443;-73
2022/10/21 07:07:45;;;;;;;13.43;11.90;;;14.60;99.90;;;;;;6127296;23;20639;-72
2022/10/21 07:10:12;;;;;;;17.67;12.23;;;14.60;99.90;;;;;;6113295;23;20459;-72
2022/10/21 07:12:39;;;;;;;11.80;10.60;;;14.60;99.90;;;;;;6112367;23;21032;-72
2022/10/21 07:15:08;;;;;;;16.23;12.53;;;14.60;99.90;;;;;;6113026;23;20447;-72
2022/10/21 07:17:35;;;;;;;14.17;11.97;;;14.60;99.90;;;;;;6100556;23;20444;-72
2022/10/21 07:20:02;;;;;;;11.17;9.73;;;14.60;99.90;;;;;;6106191;23;20442;-72
2022/10/21 07:22:30;;;;;;;12.70;10.27;;;14.60;99.90;;;;;;6114546;23;20987;-72
2022/10/21 07:24:59;;;;;;;15.93;11.73;;;14.60;99.90;;;;;;6108150;23;20516;-72
2022/10/21 07:27:26;;;;;;;14.97;10.97;;;14.70;99.90;;;;;;6120199;23;20508;-73
2022/10/21 07:29:53;;;;;;;14.90;11.30;;;14.70;99.90;;;;;;6118050;23;20518;-72
2022/10/21 07:32:20;;;;;;;14.60;11.37;;;14.70;99.90;;;;;;6109685;23;20510;-72
2022/10/21 07:34:48;;;;;;;14.30;10.67;;;14.70;99.90;;;;;;6119875;23;20431;-73
2022/10/21 07:37:15;;;;;;;17.73;12.27;;;14.70;99.90;;;;;;6123048;23;20451;-73
2022/10/21 07:39:42;;;;;;;15.63;12.20;;;14.70;99.90;;;;;;6108235;23;20458;-73
2022/10/21 07:42:11;;;;;;;16.13;13.10;;;14.70;99.90;;;;;;6122827;23;20463;-73
2022/10/21 07:44:40;;;;;;;14.93;11.20;;;14.70;99.90;;;;;;6118025;23;20435;-73
2022/10/21 07:47:07;;;;;;;17.40;11.20;;;14.80;99.90;;;;;;6113847;23;20470;-73
2022/10/21 07:49:35;;;;;;;13.47;11.57;;;14.80;99.90;;;;;;6124011;23;20474;-73
2022/10/21 07:52:02;;;;;;;18.70;12.20;;;14.80;99.90;;;;;;6116402;23;20437;-72
2022/10/21 07:54:29;;;;;;;13.63;11.20;;;14.80;99.90;;;;;;6120180;23;20435;-73
2022/10/21 07:56:57;;;;;;;11.23;10.03;;;14.80;99.90;;;;;;6110145;23;20548;-72
2022/10/21 07:59:26;;;;;;;15.53;12.10;;;14.90;99.90;;;;;;6107363;23;20561;-73
2022/10/21 08:01:53;;;;;;;16.63;12.30;;;14.80;99.90;;;;;;6109990;23;20464;-72
2022/10/21 08:04:23;;;;;;;14.57;10.70;;;14.90;99.90;;;;;;6114706;23;20496;-72
2022/10/21 08:06:51;;;;;;;14.00;10.27;;;14.80;99.90;;;;;;6125968;23;20439;-73
2022/10/21 08:09:18;;;;;;;14.00;10.37;;;14.90;99.90;;;;;;6117322;23;20512;-73
2022/10/21 08:11:45;;;;;;;16.00;9.67;;;14.80;99.90;;;;;;6117276;23;20448;-72
2022/10/21 08:14:15;;;;;;;16.97;10.30;;;14.90;99.90;;;;;;6115727;23;20497;-72
2022/10/21 08:16:43;;;;;;;15.97;10.63;;;14.90;99.90;;;;;;6113377;23;20545;-72
2022/10/21 08:19:18;;;;;;;12.30;10.80;;;14.90;99.90;;;;;;6106842;23;20460;-73
2022/10/21 08:21:45;;;;;;;11.83;10.50;;;14.90;99.90;;;;;;6110810;23;20551;-72
2022/10/21 08:24:12;;;;;;;15.73;11.10;;;14.90;99.90;;;;;;6116268;23;20433;-73
2022/10/21 08:26:39;;;;;;;12.30;9.30;;;14.90;99.90;;;;;;6091740;23;20926;-73
2022/10/21 08:29:08;;;;;;;14.80;11.33;;;15.00;99.90;;;;;;6114234;23;20442;-72
2022/10/21 08:31:35;;;;;;;12.97;10.63;;;15.00;99.90;;;;;;6116189;23;20437;-72
2022/10/21 08:34:04;;;;;;;15.00;10.97;;;15.00;99.90;;;;;;6109545;23;20553;-73
2022/10/21 08:36:31;;;;;;;11.70;10.47;;;15.00;99.90;;;;;;6115270;23;20451;-73
2022/10/21 08:38:58;;;;;;;11.90;9.97;;;15.00;99.90;;;;;;6117230;23;20528;-73
2022/10/21 08:41:43;;;;;;;10.50;8.40;;;15.00;99.90;;;;;;6112646;23;20825;-72
2022/10/21 08:44:21;;;;;;;16.07;9.57;;;15.10;99.90;;;;;;6124735;23;20437;-73
2022/10/21 08:46:54;;;;;;;11.93;9.30;;;15.00;99.90;;;;;;6112645;23;20437;-73
2022/10/21 08:49:28;;;;;;;10.40;8.80;;;15.00;99.90;;;;;;6112345;23;20438;-72
2022/10/21 08:52:02;;;;;;;12.50;8.77;;;15.00;99.90;;;;;;6117935;23;20451;-73
2022/10/21 08:54:38;;;;;;;14.40;10.33;;;15.10;99.90;;;;;;6132353;23;20438;-73
2022/10/21 08:57:05;;;;;;;11.93;10.53;;;15.00;99.90;;;;;;6110550;23;20520;-73
2022/10/21 08:59:33;;;;;;;14.70;9.53;;;15.10;99.90;;;;;;6109032;23;20519;-73
2022/10/21 09:02:08;;;;;;;13.10;10.00;;;15.10;99.90;;;;;;6121405;23;20481;-73
2022/10/21 09:04:44;;;;;;;17.60;11.10;;;15.10;99.90;;;;;;6119430;23;20516;-73
2022/10/21 09:07:22;;;;;;;10.97;9.67;;;15.10;99.90;;;;;;6096516;23;20539;-73
2022/10/21 09:09:54;;;;;;;12.70;10.57;;;15.10;99.90;;;;;;6092866;23;20520;-73
2022/10/21 09:12:29;;;;;;;17.53;11.47;;;15.10;99.90;;;;;;6121412;23;20424;-73
2022/10/21 09:15:14;;;;;;;13.33;10.07;;;15.00;99.90;;;;;;6116216;23;20446;-73
2022/10/21 09:17:54;;;;;;;12.53;9.77;;;15.10;99.90;;;;;;6107598;23;20725;-73
2022/10/21 09:20:34;;;;;;;10.93;9.80;;;15.20;99.90;;;;;;6114483;23;20486;-73
2022/10/21 09:23:12;;;;;;;16.43;11.50;;;15.00;99.90;;;;;;6120057;23;20910;-73
2022/10/21 09:25:48;;;;;;;11.73;10.53;;;15.10;99.90;;;;;;6115676;23;20566;-73
2022/10/21 09:28:16;;;;;;;12.70;10.10;;;15.10;99.90;;;;;;6121967;23;21259;-73
2022/10/21 09:30:45;;;;;;;15.23;11.20;;;15.10;99.90;;;;;;6113996;23;20452;-73
2022/10/21 09:33:17;;;;;;;14.00;10.77;;;15.20;99.90;;;;;;6121809;23;20423;-73
2022/10/21 09:35:50;;;;;;;12.93;9.90;;;15.20;99.90;;;;;;6114098;23;20449;-73
2022/10/21 09:38:24;;;;;;;11.50;9.33;;;15.20;99.90;;;;;;6115740;23;20444;-73
2022/10/21 09:40:58;;;;;;;10.57;9.33;;;15.30;99.90;;;;;;6104958;23;20473;-73
2022/10/21 09:43:27;;;;;;;9.97;8.23;;;15.30;99.90;;;;;;6102920;23;20468;-73
2022/10/21 09:45:57;;;;;;;14.20;10.37;;;15.40;99.90;;;;;;6106395;23;20469;-73
2022/10/21 09:48:32;;;;;;;12.67;8.07;;;15.50;99.90;;;;;;6101148;23;20432;-73
2022/10/21 09:51:06;;;;;;;7.23;6.50;;;15.50;99.90;;;;;;6110199;23;20486;-73
2022/10/21 09:53:38;;;;;;;10.67;7.23;;;15.50;99.90;;;;;;6125003;23;20511;-73
2022/10/21 09:56:19;;;;;;;8.67;7.00;;;15.50;99.90;;;;;;6113028;23;20470;-73
2022/10/21 09:58:50;;;;;;;10.93;6.77;;;15.60;99.90;;;;;;6129852;23;20955;-73
2022/10/21 10:01:20;;;;;;;8.60;7.10;;;15.60;99.90;;;;;;6113014;23;20795;-73
2022/10/21 10:03:49;;;;;;;10.33;6.70;;;15.60;99.90;;;;;;6107450;23;20528;-73
2022/10/21 10:06:34;;;;;;;11.33;6.63;;;15.60;99.90;;;;;;6111626;23;20463;-73
2022/10/21 10:09:22;;;;;;;10.27;6.63;;;15.60;99.90;;;;;;6110814;23;20514;-73
2022/10/21 10:11:53;;;;;;;6.80;5.20;;;15.80;99.90;;;;;;6118138;23;20844;-73
2022/10/21 10:14:29;;;;;;;8.33;5.30;;;15.70;99.90;;;;;;6104755;23;20461;-73
2022/10/21 10:16:57;;;;;;;6.63;4.70;;;15.70;99.90;;;;;;6094049;23;20500;-73
2022/10/21 10:19:28;;;;;;;7.17;5.10;;;15.80;99.90;;;;;;6116598;23;20524;-73
2022/10/21 10:22:13;;;;;;;9.20;5.20;;;15.80;99.90;;;;;;6117411;23;20437;-73
2022/10/21 10:24:40;;;;;;;10.63;5.10;;;15.90;99.90;;;;;;6101232;23;21065;-73
2022/10/21 10:27:15;;;;;;;7.33;4.43;;;16.00;99.90;;;;;;6108997;23;20480;-73
2022/10/21 10:29:49;;;;;;;6.70;3.87;;;16.00;99.90;;;;;;6109058;23;20544;-73
2022/10/21 10:32:17;;;;;;;9.20;4.37;;;16.00;99.90;;;;;;6107504;23;20853;-74
2022/10/21 10:34:52;;;;;;;8.30;3.93;;;16.10;99.90;;;;;;6114352;23;20978;-73
2022/10/21 10:37:24;;;;;;;5.23;4.20;;;16.10;99.90;;;;;;6107026;23;20445;-73
2022/10/21 10:39:55;;;;;;;7.27;3.70;;;16.10;99.90;;;;;;6116952;23;20429;-73
2022/10/21 10:42:26;;;;;;;6.10;3.80;;;16.20;99.90;;;;;;6122104;23;20892;-73
2022/10/21 10:44:56;;;;;;;5.70;3.50;;;16.20;99.90;;;;;;6122077;23;20620;-73
2022/10/21 10:47:27;;;;;;;5.40;4.00;;;16.30;99.90;;;;;;6112619;23;20434;-73
2022/10/21 10:49:55;;;;;;;6.30;3.40;;;16.40;99.90;;;;;;6122043;23;20487;-73
2022/10/21 10:52:25;;;;;;;5.70;3.50;;;16.40;99.90;;;;;;6131831;23;20428;-73
2022/10/21 10:55:16;;;;;;;4.00;3.27;;;16.50;99.90;;;;;;6113985;23;20434;-73
2022/10/21 10:57:48;;;;;;;5.07;3.20;;;16.50;99.90;;;;;;6107997;23;20524;-73
2022/10/21 11:00:18;;;;;;;4.30;2.70;;;16.60;99.90;;;;;;6109850;23;20434;-73
2022/10/21 11:02:55;;;;;;;5.40;3.20;;;16.70;99.90;;;;;;6115290;23;20469;-73
2022/10/21 11:05:27;;;;;;;5.30;3.27;;;16.70;99.90;;;;;;6117374;23;20440;-73
2022/10/21 11:08:00;;;;;;;6.20;3.20;;;16.70;99.90;;;;;;6115176;23;20520;-73
2022/10/21 11:10:33;;;;;;;4.53;3.30;;;16.80;99.90;;;;;;6096401;23;20510;-73
2022/10/21 11:13:01;;;;;;;4.37;2.87;;;16.90;99.90;;;;;;6105835;23;20422;-73
2022/10/21 11:15:54;;;;;;;3.00;2.70;;;16.90;99.90;;;;;;6110497;23;21031;-73
2022/10/21 11:18:30;;;;;;;3.93;2.60;;;17.00;99.90;;;;;;6124270;23;20434;-74
2022/10/21 11:21:06;;;;;;;5.33;2.50;;;17.00;99.90;;;;;;6122321;23;20436;-74
2022/10/21 11:24:06;;;;;;;3.03;2.50;;;17.00;99.90;;;;;;6116703;23;20532;-73
2022/10/21 11:26:43;;;;;;;3.80;2.83;;;17.10;99.90;;;;;;6124145;23;20483;-73
2022/10/21 11:29:24;;;;;;;4.23;2.37;;;17.20;99.90;;;;;;6120345;23;20962;-73
2022/10/21 11:32:00;;;;;;;3.27;2.20;;;17.20;99.90;;;;;;6112089;23;20463;-73
2022/10/21 11:34:36;;;;;;;2.60;1.90;;;17.30;99.90;;;;;;6113950;23;20930;-73
2022/10/21 11:37:10;;;;;;;2.07;1.70;;;17.40;99.90;;;;;;6107598;23;20465;-73
2022/10/21 11:39:46;;;;;;;2.30;1.73;;;17.40;99.90;;;;;;6103125;23;20441;-73
2022/10/21 11:42:22;;;;;;;4.90;2.50;;;17.50;99.90;;;;;;6110005;23;20467;-73
2022/10/21 11:45:01;;;;;;;2.80;2.00;;;17.50;99.90;;;;;;6113658;23;20479;-73
2022/10/21 11:47:34;;;;;;;3.40;2.43;;;17.50;99.90;;;;;;6113465;23;20548;-74
2022/10/21 11:50:12;;;;;;;2.83;2.00;;;17.60;99.90;;;;;;6103350;23;20484;-74
2022/10/21 11:52:51;;;;;;;9.20;1.80;;;17.70;99.90;;;;;;6110955;23;20475;-77
2022/10/21 11:55:34;;;;;;;1.53;1.37;;;17.80;99.90;;;;;;6115929;23;20440;-76
2022/10/21 11:58:15;;;;;;;3.77;1.50;;;17.80;99.90;;;;;;6131451;23;20506;-76
2022/10/21 12:00:49;;;;;;;3.20;1.50;;;17.80;99.90;;;;;;6120661;23;20503;-76
2022/10/21 12:03:35;;;;;;;2.73;1.30;;;17.90;99.90;;;;;;6101694;23;20487;-76
2022/10/21 12:06:11;;;;;;;2.67;1.50;;;17.90;99.90;;;;;;6126869;23;20446;-77
2022/10/21 12:08:49;;;;;;;3.07;1.30;;;17.90;99.90;;;;;;6128352;23;20512;-76
2022/10/21 12:11:22;;;;;;;2.23;1.40;;;17.90;99.90;;;;;;6119939;23;20441;-77
2022/10/21 12:13:54;;;;;;;1.93;1.47;;;17.90;99.90;;;;;;6128425;23;20926;-76
2022/10/21 12:16:26;;;;;;;1.87;1.17;;;17.80;99.90;;;;;;6117846;23;20496;-76
2022/10/21 12:18:56;;;;;;;1.57;1.23;;;17.80;99.90;;;;;;6108257;23;21135;-76
2022/10/21 12:21:26;;;;;;;1.47;1.10;;;17.70;99.90;;;;;;6103688;23;20983;-76
2022/10/21 12:24:01;;;;;;;1.73;1.40;;;17.70;99.90;;;;;;6128938;23;20820;-75
2022/10/21 12:26:37;;;;;;;1.80;1.30;;;17.70;99.90;;;;;;6116021;23;20511;-77
2022/10/21 12:29:12;;;;;;;2.27;1.40;;;17.70;99.90;;;;;;6115444;23;20429;-77
2022/10/21 12:31:45;;;;;;;2.97;1.10;;;17.70;99.90;;;;;;6117080;23;20523;-77
2022/10/21 12:34:13;;;;;;;3.37;1.27;;;17.70;99.90;;;;;;6130224;23;20430;-75
2022/10/21 12:36:45;;;;;;;1.60;1.40;;;17.70;99.90;;;;;;6110106;23;20523;-79
2022/10/21 12:39:46;;;;;;;3.03;1.20;;;17.70;99.90;;;;;;6101722;23;20431;-78
2022/10/21 12:42:17;;;;;;;2.00;1.10;;;17.80;99.90;;;;;;6129757;23;20804;-73
2022/10/21 12:44:46;;;;;;;1.60;1.17;;;17.80;99.90;;;;;;6105937;23;21176;-74
2022/10/21 12:47:30;;;;;;;1.27;1.10;;;17.80;99.90;;;;;;6123834;23;20433;-74
2022/10/21 12:50:07;;;;;;;1.20;1.10;;;17.70;99.90;;;;;;6129948;23;20428;-74
2022/10/21 12:52:37;;;;;;;1.63;1.27;;;17.70;99.90;;;;;;6108113;23;20528;-74